Startpagina
METAR-TAF:

METAR-TAF

Vliegvelden :

Luchthaven Dzjengis Khan

Ulaanbaatar, Mongolië

breedte: 47-55N, lengte: 106-52E, hoogte: 1306 m

Actueel weer

Dit bericht is 34 minuten geleden gemaakt, om 04:30 UTC
Wind 2 kt uit variabele richting
Temperatuur -11°C
Vochtigheid 61%
Druk 1013 hPa
Zicht: 4000 m
rook

METAR: ZMUB 170430Z VRB01MPS 4000NW FU NSC M11/M17 Q1013 NOSIG RMK QFE653.0 57 NW MO

Tijdstip: 13:04 (05:04 UTC)

Verwachting

Dit bericht is 6 uur en het 24 minuten geleden gemaakt, om 22:40 UTC
Verwachting geldig van 17 om 00 UTC tot 18 om 06 UTC
Wind 4 kt uit variabele richting
Zicht: 4000 m
Gebroken wolken op 10000 ft
rook
Wijzigt naar
van 17 om 05 UTC tot 17 om 07 UTC
Zicht: 6000 m
Verspreide wolken op 10000 ft
Wijzigt naar
van 18 om 00 UTC tot 18 om 02 UTC
Zicht: 4000 m
rook

TAF: ZMUB 162240Z 1700/1806 VRB02MPS 4000 FU BKN100 TXM09/1707Z TNM27/1723Z BECMG 1705/1707 6000 SCT100 BECMG 1800/1802 4000 FU

Waarnemingen en weersverwachtingen van meer dan 4000 vliegvelden (METAR en TAF).

De beschikbare stations zijn de gele en rode punten op de kaart.

Ga met uw muis naar het station om de naam te zien.

Klik dan om waarnemingen en weersverwachtingen te zien.

kaart wijzigen: klik op de groene knoppen met een zwart kruis om in te zoomen, op de groene knop met een streepje om uit te zoomen of op de groene pijlen voor aangrenzende kaarten.


METAR-TAF: